Terminal Aerodrome Forecast
Issued by NWS

Home | Current Version | Previous Version | Text Only | Print | Product List | Glossary On
Versions: 1 2 3 4 5 6 7 8 9 10 11 12 13
000
FTUS45 KGGW 222320
TAFSDY
TAF
KSDY 222320Z 2300/2324 27017G25KT P6SM -SHRA VCTS SCT100CB
      WS020/28045KT
     FM230300 28019G27KT P6SM FEW090=

USA.gov is the U.S. government's official web portal to all federal, state and local government web resources and services.